En poursuivant votre navigation sur ce site, vous acceptez l'utilisation de cookies pour vous proposer des contenus et services adaptés. Mentions légales.
Texte à méditer :  

27/11/2021 l'Ain en vigilance neige/verglas❄️ demain dimanche 28/11  : cliquez ICI
21/11/2021 Mise à jour des tableaux d'analyses décadaires : rubrique climatologie
03/11/2021 Mise en ligne de la synthèse climatologique d'octobre 2021 : cliquez ICI
02/11/2021 Mise à jour des tableaux d'analyses décadaires, mensuelles et annuelles : rubrique climatologie
  

NOAA COMPLET DU MOIS

Si l'entête du tableau ne s'affiche pas correctement, => actualisez la page (F5 avec Internet Explorer, Chrome...).
Utilisez l'ascenseur sur la droite des lignes du tableau pour faire défiler verticalement les jours du mois.

TABLEAU DES DONNEES COMPLETES NOAA de JUIN 2021

DATE TEMPERATURE
sous abri
TEMPARATURE 
au sol
VENT  et  Indice de Refroidissement Eolien  PRECIPITATIONS (en mm/m2)
et Intensité
PRESSION ATMOSPHERIQUE (en hPa) HUMIDITE de l'AIR RADIATIONS SOLAIRES (en W/m2)
Mini Moy. Maxi Mini Moy. Maxi Moyen Rafale I.R.E.
Minii
Précip. jour Cumul mois Intensité Maxi Mini Moy. Maxi Mini Moy. Maxi Pic maxi du jour Total jour
01/06/21 16.5° 21.7° 27.3° 15° 21.4° 28.9° 11.1km/h dir SE 41.8km/h dir SSE 16.5° 0 0 1009.2 1011.9 1013.9 44% 59.9% 78% 939 97 097
02/06/21 16.9° 18.7° 20.8° 15.6° 18.6° 23.3° 9.5km/h dir SE 38.6km/h dir ESE 15.3° 0.2 0.2 1012.2 1015.1 1018.5 63% 75.9% 86% 756 37 214
03/06/21 16.9° 22.3° 28.2° 15.6° 22.4° 30° 8.5km/h dir SE 32.2km/h dir SSE 16.9° 0 0.2 1017.3 1019 1020.5 46% 65.6% 84% 1042 90 823
04/06/21 17.7° 22.6° 28.2° 17.2° 22.5° 31.1° 7.9km/h dir SE 35.4km/h dir SSE 17.8° 4.8 5 77.4mm/h 1017.6 1019.5 1021.8 47% 63.6% 93% 1123 79 768
05/06/21 15.3° 17° 20.2° 15.6° 18.4° 23.9° 4.8km/h dir OSO 24.1km/h dir OSO 15.3° 11.4 16.4 90mm/h 1021.1 1022.3 1023.3 77% 89.8% 96% 1227 46 170
06/06/21 14.8° 17.1° 20.3° 15.6° 18.3° 25° 9.7km/h dir O 30.6km/h dir O 14.6° 0 16.4 1019.6 1021 1023.3 74% 86.2% 95% 1334 54 693
07/06/21 15.2° 18.6° 23.4° 16.1° 19.4° 26.1° 9km/h dir O 33.8km/h dir N 15° 0 16.4 1018.3 1019.5 1020.4 64% 82.6% 93% 1106 60 615
08/06/21 13.4° 18.5° 24.9° 13.3° 19.2° 28.3° 6.4km/h dir O 33.8km/h dir NNE 13.4° 0 16.4 1019 1020 1021.1 62% 84.3% 96% 1230 72 316
09/06/21 14.9° 19.4° 26.7° 14.4° 20.3° 28.9° 4.7km/h dir O 29km/h dir NE 14.9° 6.2 22.6 107.6mm/h 1018.6 1019.8 1020.7 57% 85.5% 97% 1120 71 288
10/06/21 13.9° 21.3° 28.2° 14.4° 21.9° 29.4° 6km/h dir O 29km/h dir O 13.9° 0 22.6 1016.6 1018.6 1020.4 50% 77.1% 97% 954 95 615
11/06/21 14.2° 22° 29.1° 13.9° 22.1° 30° 6km/h dir O 29km/h dir N 14.3° 0 22.6 1015.7 1017.1 1018 45% 72.6% 96% 918 92 127
12/06/21 15.3° 22.9° 29.2° 14.4° 22.6° 30.6° 6km/h dir NNE 24.1km/h dir NNE 15.3° 0 22.6 1017.8 1019.7 1021.3 51% 71.6% 94% 1035 94 473
13/06/21 15.8° 22.6° 28.2° 15° 22.4° 29.4° 9.3km/h dir O 32.2km/h dir OSO 15.9° 0 22.6 1018.2 1020.4 1022.1 48% 71.3% 94% 926 97 817
14/06/21 13.2° 22° 29.8° 12.2° 21.6° 30.6° 3.1km/h dir NNE 19.3km/h dir OSO 13.2° 0 22.6 1015.2 1017.3 1018.6 45% 68.3% 94% 937 99 273
15/06/21 15.3° 23.6° 31.1° 14.4° 23° 31.7° 3.2km/h dir NNE 19.3km/h dir SO 15.3° 0 22.6 1014.2 1016 1017.6 40% 67.7% 94% 933 97 688
16/06/21 15.8° 25.2° 33.6° 15° 24.7° 33.9° 3.7km/h dir SE 20.9km/h dir E 15.8° 0 22.6 1009.2 1012 1014.6 36% 66.3% 93% 911 95 456
17/06/21 22.4° 26° 30.3° 21.1° 25.8° 32.8° 8.5km/h dir SE 33.8km/h dir SE 22.4° 0 22.6 1009.8 1011 1012.4 53% 67.1% 81% 1102 69 759
18/06/21 18.8° 25.6° 32.1° 17.8° 25.2° 33.3° 7.6km/h dir SE 38.6km/h dir SSE 18.8° 0 22.6 1010.9 1012 1013.2 41% 66.4% 91% 932 81 917
19/06/21 20.5° 25.5° 30.6° 19.4° 25.6° 32.2° 9km/h dir SE 43.5km/h dir SE 20.5° 0.8 23.4 1007.5 1011.7 1014.4 51% 71% 93% 940 78 463
20/06/21 16.7° 20.9° 29.7° 16.7° 21° 32.2° 6.6km/h dir SE 48.3km/h dir SSE 16.4° 15.8 39.2 86.6mm/h 1004.4 1008.1 1012.6 55% 81.6% 94% 870 38 641
21/06/21 15.1° 20.2° 27.5° 15° 21.1° 30.6° 3.7km/h dir SSE 29km/h dir OSO 15.1° 3 42.2 7.2mm/h 1004.8 1007.5 1010 57% 83.5% 97% 1104 67 799
22/06/21 15.2° 19.4° 25.2° 15.6° 20.3° 28.3° 3.2km/h dir O 17.7km/h dir N 15.2° 2 44.2 6.6mm/h 1009.3 1011.5 1014.3 56% 80.3% 96% 1260 69 178
23/06/21 14.6° 19.8° 26.4° 14.4° 20.4° 28.3° 5.6km/h dir OSO 25.7km/h dir SE 14.6° 9.6 53.8 14.6mm/h 1013.8 1015.3 1017.5 58% 80.2% 96% 1116 79 593
24/06/21 13.7° 16.5° 18.9° 13.3° 17.4° 21.1° 3.2km/h dir SO 20.9km/h dir SO 13.7° 5.4 59.2 48.6mm/h 1016 1018.6 1022.5 82% 91.9% 97% 752 37 730
25/06/21 12.9° 17.4° 23.6° 12.8° 18.3° 26.7° 1.8km/h dir NNE 16.1km/h dir NE 12.9° 0.2 59.4 1017.7 1020 1022.4 51% 78.4% 96% 1197 68 493
26/06/21 10.8° 19.2° 27.1° 10.6° 19.8° 29.4° 1.6km/h dir NNE 12.9km/h dir S 10.8° 0 59.4 1013.2 1015.9 1018.1 45% 73.5% 96% 986 94 367
27/06/21 16.1° 21.7° 29.3° 15° 22° 32.8° 4.5km/h dir SE 27.4km/h dir SSE 16.1° 0 59.4 1010.2 1012 1013.6 52% 75.5% 94% 1074 63 299
28/06/21 17° 18.4° 20.6° 17.2° 18.8° 22.2° 3.5km/h dir ESE 17.7km/h dir ESE 17° 3.6 63 2.4mm/h 1011.3 1013.2 1014.5 87% 92.8% 95% 360 17 910
29/06/21 13.4° 18° 23.8° 12.8° 19.2° 28.9° 3.2km/h dir SSE 29km/h dir OSO 13.4° 7.4 70.4 12mm/h 1012.5 1013.8 1016.2 54% 84.7% 97% 1246 53 814
30/06/21 12.6° 16.3° 20.5° 12.2° 17.3° 25.6° 3.1km/h dir SE 16.1km/h dir SSE 12.6° 0.4 70.8 1015.8 1016.7 1018.1 70% 86.1% 96% 1081 39 187

RETOUR ACCUEIL


Date de création : 01/07/2021 : 20:38
Catégorie : - MOIS PASSES - JUIN 2021
Page lue 222 fois